createdAt,value
2022-10-31T00:00:56.409Z,5.63
2022-10-31T00:04:02.507Z,6.30
2022-10-31T00:07:08.811Z,5.90
2022-10-31T00:10:15.105Z,6.77
2022-10-31T00:16:34.108Z,4.93
2022-10-31T00:19:40.293Z,5.13
2022-10-31T00:22:46.647Z,4.97
2022-10-31T00:25:52.986Z,5.77
2022-10-31T00:29:01.110Z,5.10
2022-10-31T00:32:07.106Z,4.83
2022-10-31T00:35:13.422Z,6.13
2022-10-31T00:38:19.869Z,5.60
2022-10-31T00:41:26.248Z,6.47
2022-10-31T00:44:33.547Z,5.63
2022-10-31T00:47:39.865Z,5.77
2022-10-31T00:50:45.932Z,6.07
2022-10-31T00:53:52.052Z,7.07
2022-10-31T00:56:58.253Z,5.90
2022-10-31T01:00:07.199Z,4.87
2022-10-31T01:03:13.261Z,9.07
2022-10-31T01:06:19.512Z,8.63
2022-10-31T01:09:25.610Z,9.40
2022-10-31T01:12:31.938Z,7.90
2022-10-31T01:15:39.599Z,6.87
2022-10-31T01:18:46.546Z,7.03
2022-10-31T01:21:52.742Z,6.50
2022-10-31T01:24:58.787Z,5.77
2022-10-31T01:28:05.248Z,5.83
2022-10-31T01:31:12.838Z,4.73
2022-10-31T01:34:20.042Z,4.90
2022-10-31T01:37:25.950Z,5.13
2022-10-31T01:40:32.362Z,6.27
2022-10-31T01:43:50.144Z,6.63
2022-10-31T01:47:00.671Z,6.17
2022-10-31T01:50:13.363Z,7.20
2022-10-31T01:53:24.357Z,6.43
2022-10-31T01:56:35.682Z,6.10
2022-10-31T01:59:46.856Z,6.47
2022-10-31T02:02:57.219Z,6.47
2022-10-31T02:06:09.884Z,9.87
2022-10-31T02:09:17.329Z,8.73
2022-10-31T02:12:24.491Z,7.27
2022-10-31T02:15:32.329Z,8.33
2022-10-31T02:18:40.250Z,7.57
2022-10-31T02:21:55.981Z,6.83
2022-10-31T02:25:22.392Z,6.40
2022-10-31T02:28:44.473Z,7.27
2022-10-31T02:32:01.608Z,6.93
2022-10-31T02:35:16.788Z,9.90
2022-10-31T02:38:35.457Z,10.80
2022-10-31T02:41:50.394Z,24.77
2022-10-31T02:45:02.770Z,8.07
2022-10-31T02:48:13.483Z,15.43
2022-10-31T02:51:20.134Z,8.90
2022-10-31T02:54:28.297Z,10.67
2022-10-31T02:57:36.840Z,9.93
2022-10-31T03:00:52.372Z,9.53
2022-10-31T03:04:31.442Z,7.00
2022-10-31T03:07:44.567Z,8.00
2022-10-31T03:10:57.251Z,11.47
2022-10-31T03:14:11.054Z,8.23
2022-10-31T03:17:23.292Z,8.10
2022-10-31T03:20:38.669Z,7.73
2022-10-31T03:23:48.849Z,7.70
2022-10-31T03:26:59.788Z,7.27
2022-10-31T03:30:09.272Z,9.27
2022-10-31T03:33:19.656Z,12.10
2022-10-31T03:36:29.418Z,11.40
2022-10-31T03:39:39.406Z,9.87
2022-10-31T03:42:54.003Z,18.07
2022-10-31T03:46:01.039Z,10.00
2022-10-31T03:49:07.487Z,9.23
2022-10-31T03:52:21.522Z,8.67
2022-10-31T03:55:33.566Z,8.67
2022-10-31T03:58:45.345Z,7.33
2022-10-31T04:01:55.987Z,8.00
2022-10-31T04:05:02.702Z,10.53
2022-10-31T04:08:15.229Z,9.03
2022-10-31T04:11:27.300Z,9.00
2022-10-31T04:14:36.835Z,9.67
2022-10-31T04:17:47.524Z,13.40
2022-10-31T04:21:02.973Z,13.13
2022-10-31T04:24:10.830Z,14.00
2022-10-31T04:27:17.130Z,15.43
2022-10-31T04:30:24.037Z,14.73
2022-10-31T04:33:30.253Z,18.43
2022-10-31T04:36:36.657Z,17.73
2022-10-31T04:39:44.416Z,20.83
2022-10-31T04:42:50.516Z,20.37
2022-10-31T04:45:56.975Z,19.83
2022-10-31T04:49:03.255Z,16.90
2022-10-31T04:52:10.701Z,23.80
2022-10-31T04:55:18.374Z,32.20
2022-10-31T04:58:24.580Z,36.60
2022-10-31T05:01:30.996Z,22.53
2022-10-31T05:04:37.041Z,12.80
2022-10-31T05:07:45.056Z,14.00
2022-10-31T05:10:53.031Z,16.10
2022-10-31T05:13:59.007Z,20.13
2022-10-31T05:17:05.535Z,14.60
2022-10-31T05:20:12.378Z,16.43
2022-10-31T05:23:18.801Z,16.47
2022-10-31T05:26:26.672Z,15.03
2022-10-31T05:29:34.462Z,14.30
2022-10-31T05:32:41.155Z,14.13
2022-10-31T05:35:47.307Z,12.90
2022-10-31T05:38:53.728Z,17.87
2022-10-31T05:42:01.575Z,19.57
2022-10-31T05:45:09.562Z,27.00
2022-10-31T05:48:15.892Z,33.33
2022-10-31T05:51:22.276Z,24.73
2022-10-31T05:54:28.610Z,29.47
2022-10-31T05:57:36.033Z,24.30
2022-10-31T06:00:42.454Z,22.63
2022-10-31T06:03:48.933Z,33.03
2022-10-31T06:06:55.056Z,39.67
2022-10-31T06:10:01.232Z,24.93
2022-10-31T06:13:09.225Z,30.80
2022-10-31T06:16:15.430Z,22.47
2022-10-31T06:19:21.518Z,25.17
2022-10-31T06:22:28.160Z,21.97
2022-10-31T06:25:35.198Z,22.60
2022-10-31T06:28:42.933Z,17.80
2022-10-31T06:31:49.087Z,25.37
2022-10-31T06:34:55.676Z,25.70
2022-10-31T06:38:02.083Z,23.47
2022-10-31T06:41:09.015Z,24.27
2022-10-31T06:44:16.616Z,34.60
2022-10-31T06:47:23.050Z,23.17
2022-10-31T06:50:29.572Z,26.53
2022-10-31T06:53:36.370Z,22.37
2022-10-31T06:56:42.692Z,22.87
2022-10-31T06:59:50.430Z,23.27
2022-10-31T07:02:58.000Z,22.27
2022-10-31T07:06:04.368Z,22.23
2022-10-31T07:09:10.820Z,18.90
2022-10-31T07:12:17.982Z,21.33
2022-10-31T07:15:25.243Z,25.03
2022-10-31T07:18:31.636Z,31.97
2022-10-31T07:21:37.860Z,27.90
2022-10-31T07:24:44.257Z,22.57
2022-10-31T07:27:50.318Z,28.40
2022-10-31T07:30:59.769Z,23.27
2022-10-31T07:34:05.998Z,22.17
2022-10-31T07:37:12.356Z,29.33
2022-10-31T07:40:19.737Z,33.50
2022-10-31T07:43:25.997Z,29.17
2022-10-31T07:46:33.381Z,28.73
2022-10-31T07:49:39.503Z,27.50
2022-10-31T07:52:46.082Z,30.77
2022-10-31T07:55:52.797Z,36.93
2022-10-31T07:58:59.490Z,29.63
2022-10-31T08:02:08.161Z,30.73
2022-10-31T08:05:14.620Z,43.50
2022-10-31T08:08:21.093Z,37.60
2022-10-31T08:11:27.571Z,32.43
2022-10-31T08:14:33.787Z,41.27
2022-10-31T08:17:41.652Z,33.67
2022-10-31T08:20:47.759Z,36.37
2022-10-31T08:23:53.920Z,32.83
2022-10-31T08:27:00.044Z,27.77
2022-10-31T08:30:07.435Z,26.73
2022-10-31T08:33:17.650Z,41.97
2022-10-31T08:36:24.115Z,35.30
2022-10-31T08:39:30.072Z,24.27
2022-10-31T08:42:36.654Z,29.37
2022-10-31T08:45:43.740Z,24.63
2022-10-31T08:48:51.515Z,26.97
2022-10-31T08:51:57.602Z,28.17
2022-10-31T08:55:03.878Z,24.47
2022-10-31T08:58:12.905Z,20.77
2022-10-31T09:01:19.426Z,18.30
2022-10-31T09:04:27.163Z,13.83
2022-10-31T09:07:33.360Z,13.03
2022-10-31T09:10:40.350Z,8.63
2022-10-31T09:13:46.881Z,4.53
2022-10-31T09:16:53.669Z,3.90
2022-10-31T09:20:01.265Z,2.67
2022-10-31T09:23:08.764Z,2.80
2022-10-31T09:26:15.070Z,3.50
2022-10-31T09:29:21.401Z,2.80
2022-10-31T09:32:27.804Z,2.60
2022-10-31T09:35:35.990Z,1.70
2022-10-31T09:38:42.329Z,1.90
2022-10-31T09:42:09.407Z,1.83
2022-10-31T09:45:20.366Z,2.30
2022-10-31T09:48:40.023Z,3.00
2022-10-31T09:51:54.115Z,2.87
2022-10-31T09:55:04.627Z,2.77
2022-10-31T09:58:17.876Z,2.13
2022-10-31T10:01:35.475Z,2.27
2022-10-31T10:04:47.043Z,1.93
2022-10-31T10:08:02.768Z,2.33
2022-10-31T10:11:23.391Z,2.03
2022-10-31T10:14:44.159Z,1.80
2022-10-31T10:18:01.774Z,1.10
2022-10-31T10:21:24.890Z,1.90
2022-10-31T10:24:55.139Z,4.27
2022-10-31T10:28:11.404Z,4.70
2022-10-31T10:31:19.196Z,3.13
2022-10-31T10:34:30.120Z,3.57
2022-10-31T10:37:40.772Z,3.30
2022-10-31T10:40:49.371Z,4.73
2022-10-31T10:43:56.288Z,2.60
2022-10-31T10:47:22.149Z,2.63
2022-10-31T10:50:36.203Z,2.00
2022-10-31T10:54:06.597Z,1.60
2022-10-31T10:57:25.215Z,2.23
2022-10-31T11:00:36.622Z,2.00
2022-10-31T11:03:43.537Z,2.13
2022-10-31T11:06:59.547Z,2.07
2022-10-31T11:10:14.081Z,1.87
2022-10-31T11:13:25.947Z,2.77
2022-10-31T11:16:40.443Z,2.60
2022-10-31T11:19:47.756Z,2.00
2022-10-31T11:23:03.812Z,2.10
2022-10-31T11:26:22.454Z,3.43
2022-10-31T11:29:29.981Z,2.90
2022-10-31T11:32:36.340Z,3.83
2022-10-31T11:35:42.703Z,5.73
2022-10-31T11:38:49.634Z,2.67
2022-10-31T11:41:57.482Z,4.93
2022-10-31T11:45:14.852Z,7.50
2022-10-31T11:48:23.925Z,2.50
2022-10-31T11:51:34.042Z,1.83
2022-10-31T11:54:47.601Z,2.80
2022-10-31T11:57:56.234Z,2.70
2022-10-31T12:01:04.008Z,2.10
2022-10-31T12:04:12.347Z,2.67
2022-10-31T12:07:18.286Z,2.60
2022-10-31T12:10:34.134Z,2.80
2022-10-31T12:13:44.598Z,2.20
2022-10-31T12:16:58.080Z,2.20
2022-10-31T12:20:19.713Z,2.43
2022-10-31T12:23:35.706Z,4.33
2022-10-31T12:26:49.027Z,4.43
2022-10-31T12:30:14.691Z,5.70
2022-10-31T12:33:35.052Z,2.70
2022-10-31T12:36:51.312Z,2.60
2022-10-31T12:40:09.593Z,3.97
2022-10-31T12:43:31.428Z,2.50
2022-10-31T12:46:57.561Z,2.90
2022-10-31T12:50:28.246Z,2.67
2022-10-31T12:53:49.638Z,2.50
2022-10-31T12:57:04.582Z,2.90
2022-10-31T13:00:17.080Z,4.57
2022-10-31T13:03:30.891Z,2.33
2022-10-31T13:06:45.030Z,1.97
2022-10-31T13:09:58.543Z,2.03
2022-10-31T13:13:10.359Z,2.00
2022-10-31T13:16:19.020Z,2.00
2022-10-31T13:19:28.260Z,1.50
2022-10-31T13:22:37.855Z,1.60
2022-10-31T13:25:48.887Z,1.80
2022-10-31T13:29:04.818Z,2.13
2022-10-31T13:32:12.592Z,1.83
2022-10-31T13:35:26.491Z,2.00
2022-10-31T13:38:40.481Z,2.10
2022-10-31T13:41:50.849Z,2.57
2022-10-31T13:44:56.880Z,1.90
2022-10-31T13:48:19.706Z,1.90
2022-10-31T13:51:31.325Z,2.20
2022-10-31T13:54:40.465Z,2.23
2022-10-31T13:57:47.134Z,1.63
2022-10-31T14:01:15.304Z,1.60
2022-10-31T14:04:25.829Z,1.60
2022-10-31T14:07:33.765Z,1.70
2022-10-31T14:10:49.277Z,2.30
2022-10-31T14:13:57.187Z,2.67
2022-10-31T14:17:03.987Z,3.27
2022-10-31T14:20:27.842Z,2.33
2022-10-31T14:23:41.364Z,2.70
2022-10-31T14:26:56.654Z,3.00
2022-10-31T14:30:16.852Z,2.30
2022-10-31T14:33:25.702Z,2.40
2022-10-31T14:36:52.909Z,1.87
2022-10-31T14:40:23.052Z,3.03
2022-10-31T14:43:47.934Z,2.10
2022-10-31T14:47:03.754Z,2.03
2022-10-31T14:50:37.553Z,2.00
2022-10-31T14:53:49.172Z,1.87
2022-10-31T14:56:59.359Z,2.17
2022-10-31T15:00:10.069Z,3.07
2022-10-31T15:03:19.263Z,4.10
2022-10-31T15:06:26.749Z,4.27
2022-10-31T15:09:34.268Z,3.30
2022-10-31T15:12:40.265Z,4.60
2022-10-31T15:15:52.352Z,3.67
2022-10-31T15:19:01.887Z,5.00
2022-10-31T15:22:09.530Z,5.50
2022-10-31T15:25:20.657Z,7.30
2022-10-31T15:28:28.144Z,19.03
2022-10-31T15:31:35.945Z,22.43
2022-10-31T15:34:44.484Z,24.43
2022-10-31T15:37:50.550Z,43.33
2022-10-31T15:41:00.160Z,30.87
2022-10-31T15:44:14.956Z,57.10
2022-10-31T15:47:25.497Z,54.27
2022-10-31T15:50:35.893Z,43.47
2022-10-31T15:53:47.179Z,66.90
2022-10-31T15:56:53.857Z,25.33
2022-10-31T16:00:00.575Z,31.47
2022-10-31T16:03:21.559Z,31.00
2022-10-31T16:06:28.410Z,40.57
2022-10-31T16:09:34.573Z,37.30
2022-10-31T16:12:47.200Z,22.47
2022-10-31T16:16:21.274Z,38.10
2022-10-31T16:19:28.282Z,31.47
2022-10-31T16:22:38.109Z,30.57
2022-10-31T16:25:44.469Z,33.83
2022-10-31T16:29:02.628Z,46.10
2022-10-31T16:32:28.460Z,43.63
2022-10-31T16:35:37.855Z,41.90
2022-10-31T16:38:44.210Z,41.33
2022-10-31T16:41:54.274Z,55.13
2022-10-31T16:45:01.219Z,46.63
2022-10-31T16:48:12.021Z,53.13
2022-10-31T16:51:20.022Z,50.73
2022-10-31T16:54:25.954Z,66.73
2022-10-31T16:57:33.574Z,56.73
2022-10-31T17:00:40.647Z,68.67
2022-10-31T17:03:46.993Z,69.33
2022-10-31T17:06:54.393Z,61.77
2022-10-31T17:10:00.878Z,60.70
2022-10-31T17:13:09.477Z,65.47
2022-10-31T17:16:16.344Z,58.57
2022-10-31T17:19:22.634Z,66.73
2022-10-31T17:22:31.004Z,70.90
2022-10-31T17:25:37.092Z,84.47
2022-10-31T17:28:43.279Z,72.80
2022-10-31T17:31:49.464Z,41.90
2022-10-31T17:34:55.465Z,88.33
2022-10-31T17:38:02.700Z,60.23
2022-10-31T17:41:11.283Z,68.53
2022-10-31T17:44:17.976Z,51.67
2022-10-31T17:47:24.082Z,46.30
2022-10-31T17:50:30.257Z,47.03
2022-10-31T17:53:37.554Z,50.20
2022-10-31T17:56:43.438Z,41.03
2022-10-31T17:59:50.207Z,27.47
2022-10-31T18:02:56.485Z,22.67
2022-10-31T18:06:02.593Z,44.53
2022-10-31T18:09:10.036Z,42.30
2022-10-31T18:12:16.728Z,60.93
2022-10-31T18:15:22.866Z,52.77
2022-10-31T18:18:29.140Z,65.07
2022-10-31T18:21:35.380Z,49.60
2022-10-31T18:24:43.062Z,46.97
2022-10-31T18:27:49.495Z,42.97
2022-10-31T18:30:56.168Z,34.00
2022-10-31T18:34:02.408Z,25.70
2022-10-31T18:37:08.405Z,18.67
2022-10-31T18:40:16.637Z,29.23
2022-10-31T18:43:22.924Z,13.90
2022-10-31T18:46:30.403Z,16.33
2022-10-31T18:49:36.833Z,16.03
2022-10-31T18:52:42.885Z,23.13
2022-10-31T18:55:51.022Z,22.73
2022-10-31T18:58:57.616Z,14.67
2022-10-31T19:02:03.944Z,19.67
2022-10-31T19:05:10.253Z,27.07
2022-10-31T19:08:16.501Z,24.67
2022-10-31T19:11:24.264Z,35.00
2022-10-31T19:14:30.806Z,27.43
2022-10-31T19:17:37.366Z,29.23
2022-10-31T19:20:43.392Z,31.17
2022-10-31T19:23:49.424Z,26.50
2022-10-31T19:26:57.043Z,23.57
2022-10-31T19:30:03.196Z,25.37
2022-10-31T19:33:09.436Z,20.17
2022-10-31T19:36:18.580Z,23.13
2022-10-31T19:39:24.660Z,18.47
2022-10-31T19:42:33.189Z,20.80
2022-10-31T19:45:39.385Z,23.13
2022-10-31T19:48:45.648Z,28.13
2022-10-31T19:51:52.290Z,16.40
2022-10-31T19:54:58.398Z,29.23
2022-10-31T19:58:05.939Z,21.57
2022-10-31T20:01:13.413Z,20.17
2022-10-31T20:04:19.833Z,25.60
2022-10-31T20:07:25.789Z,21.93
2022-10-31T20:10:31.733Z,19.70
2022-10-31T20:13:39.597Z,19.60
2022-10-31T20:16:46.559Z,19.13
2022-10-31T20:19:52.865Z,20.10
2022-10-31T20:22:59.377Z,23.27
2022-10-31T20:26:06.431Z,24.13
2022-10-31T20:29:17.019Z,23.37
2022-10-31T20:32:23.289Z,25.90
2022-10-31T20:35:29.278Z,28.40
2022-10-31T20:38:36.328Z,25.10
2022-10-31T20:41:42.912Z,18.27
2022-10-31T20:44:50.385Z,11.80
2022-10-31T20:47:56.980Z,9.97
2022-10-31T20:51:05.398Z,9.80
2022-10-31T20:54:13.990Z,13.10
2022-10-31T20:57:20.178Z,30.27
2022-10-31T21:00:27.741Z,19.67
2022-10-31T21:03:36.598Z,24.67
2022-10-31T21:06:48.147Z,11.93
2022-10-31T21:09:55.427Z,12.57
2022-10-31T21:13:02.012Z,13.13
2022-10-31T21:16:12.762Z,10.53
2022-10-31T21:19:18.747Z,12.77
2022-10-31T21:22:24.991Z,13.23
2022-10-31T21:25:31.121Z,12.10
2022-10-31T21:28:37.546Z,8.70
2022-10-31T21:31:45.950Z,7.60
2022-10-31T21:34:52.158Z,10.20
2022-10-31T21:37:59.505Z,11.60
2022-10-31T21:41:07.622Z,14.10
2022-10-31T21:44:14.057Z,14.30
2022-10-31T21:47:21.797Z,14.97
2022-10-31T21:50:28.089Z,13.33
2022-10-31T21:53:51.591Z,11.83
2022-10-31T21:56:59.658Z,9.43
2022-10-31T22:00:09.113Z,10.47
2022-10-31T22:03:16.806Z,9.50
2022-10-31T22:06:23.339Z,12.23
2022-10-31T22:09:29.358Z,19.57
2022-10-31T22:12:35.347Z,9.83
2022-10-31T22:15:41.733Z,12.43
2022-10-31T22:18:53.341Z,12.57
2022-10-31T22:21:59.555Z,11.33
2022-10-31T22:25:06.025Z,9.10
2022-10-31T22:28:12.328Z,8.27
2022-10-31T22:31:20.683Z,10.87
2022-10-31T22:34:28.339Z,12.87
2022-10-31T22:37:34.816Z,14.47
2022-10-31T22:40:40.965Z,12.73
2022-10-31T22:43:47.426Z,11.10
2022-10-31T22:46:53.572Z,10.50
2022-10-31T22:50:00.969Z,8.10
2022-10-31T22:53:07.234Z,6.57
2022-10-31T22:56:15.713Z,5.80
2022-10-31T22:59:21.613Z,6.27
2022-10-31T23:02:29.134Z,13.93
2022-10-31T23:05:36.583Z,11.47
2022-10-31T23:08:43.520Z,9.83
2022-10-31T23:11:49.824Z,9.10
2022-10-31T23:14:54.892Z,8.67
2022-10-31T23:18:01.353Z,7.40
2022-10-31T23:21:30.198Z,5.80
2022-10-31T23:24:38.702Z,5.57
2022-10-31T23:27:43.880Z,6.70
2022-10-31T23:30:50.222Z,5.70
2022-10-31T23:33:56.087Z,6.60
2022-10-31T23:37:03.764Z,8.37
2022-10-31T23:40:10.449Z,8.90
2022-10-31T23:43:16.377Z,6.90
2022-10-31T23:46:22.678Z,9.30
2022-10-31T23:49:29.443Z,7.93
2022-10-31T23:52:36.758Z,7.87
2022-10-31T23:55:42.807Z,6.77
2022-10-31T23:58:48.937Z,6.40
